Time;durP1;ratioP1;P1;durP2;ratioP2;P2;SDS_P1;SDS_P2;PMS_P1;PMS_P2;Temp;Humidity;BMP_temperature;BMP_pressure;BME280_temperature;BME280_humidity;BME280_pressure;Samples;Min_cycle;Max_cycle;Signal;HPM_P1;HPM_P2
2022/04/29 00:02:28;;;;;;;48.53;28.20;;;;;;;4.84;72.16;99912.09;2261420;79;20914;-79
2022/04/29 00:05:29;;;;;;;50.03;28.73;;;;;;;4.79;72.24;99910.56;2261746;79;20939;-79
2022/04/29 00:08:29;;;;;;;50.30;27.13;;;;;;;4.74;72.39;99921.48;2262233;79;21227;-79
2022/04/29 00:11:29;;;;;;;42.97;26.40;;;;;;;4.73;72.60;99915.42;2262204;79;20868;-79
2022/04/29 00:14:30;;;;;;;277.47;37.63;;;;;;;4.74;72.42;99915.02;2261835;79;20938;-79
2022/04/29 00:17:30;;;;;;;66.70;27.17;;;;;;;4.68;72.86;99912.11;2261927;79;20927;-79
2022/04/29 00:20:31;;;;;;;52.67;26.40;;;;;;;4.67;72.75;99913.81;2262141;79;20856;-79
2022/04/29 00:23:31;;;;;;;58.27;30.77;;;;;;;4.67;73.04;99912.92;2261935;79;21305;-79
2022/04/29 00:26:31;;;;;;;67.83;39.07;;;;;;;4.72;73.78;99918.81;2262105;79;20922;-79
2022/04/29 00:29:32;;;;;;;82.50;43.07;;;;;;;4.74;74.48;99922.77;2262944;79;20902;-79
2022/04/29 00:32:32;;;;;;;61.43;31.90;;;;;;;4.80;74.70;99929.56;2262157;79;21325;-79
2022/04/29 00:35:33;;;;;;;50.80;28.13;;;;;;;4.77;73.64;99917.36;2262262;79;20903;-79
2022/04/29 00:38:33;;;;;;;54.60;29.80;;;;;;;4.67;73.44;99915.50;2261807;79;20942;-79
2022/04/29 00:41:33;;;;;;;71.03;33.83;;;;;;;4.56;73.44;99917.94;2261285;79;20958;-79
2022/04/29 00:44:35;;;;;;;62.87;35.73;;;;;;;4.55;73.75;99913.58;2261690;79;21393;-79
2022/04/29 00:47:34;;;;;;;98.70;39.67;;;;;;;4.58;73.48;99909.86;2259903;79;20959;-77
2022/04/29 00:50:35;;;;;;;84.50;39.10;;;;;;;4.56;74.18;99911.47;2246930;79;20923;-79
2022/04/29 00:53:35;;;;;;;149.97;42.13;;;;;;;4.51;74.20;99910.34;2246835;79;21046;-79
2022/04/29 00:56:35;;;;;;;70.57;37.60;;;;;;;4.47;74.29;99908.89;2246531;79;20959;-79
2022/04/29 00:59:36;;;;;;;64.87;34.33;;;;;;;4.44;74.24;99911.72;2246546;79;20943;-79
2022/04/29 01:02:36;;;;;;;57.07;31.63;;;;;;;4.39;74.35;99905.02;2246594;79;20983;-79
2022/04/29 01:05:37;;;;;;;60.60;32.73;;;;;;;4.40;74.39;99902.91;2247430;79;21306;-79
2022/04/29 01:08:37;;;;;;;54.73;31.77;;;;;;;4.38;74.32;99905.81;2248575;79;21011;-79
2022/04/29 01:11:37;;;;;;;59.20;29.27;;;;;;;4.33;74.09;99898.19;2248296;79;21278;-79
2022/04/29 01:14:38;;;;;;;54.20;28.90;;;;;;;4.23;74.10;99895.92;2247434;79;21272;-79
2022/04/29 01:17:39;;;;;;;47.53;28.53;;;;;;;4.21;74.24;99900.52;2248233;79;21061;-79
2022/04/29 01:20:39;;;;;;;63.40;30.73;;;;;;;4.21;74.66;99896.65;2248382;79;20852;-79
2022/04/29 01:23:41;;;;;;;58.53;33.07;;;;;;;4.26;75.11;99902.95;2248612;79;20936;-79
2022/04/29 01:26:39;;;;;;;61.57;37.00;;;;;;;4.30;74.89;99896.73;2248495;78;21378;-79
2022/04/29 01:29:40;;;;;;;54.87;30.57;;;;;;;4.34;75.09;99893.54;2248142;79;21278;-79
2022/04/29 01:32:40;;;;;;;53.80;29.23;;;;;;;4.27;74.25;99895.28;2248466;79;20865;-79
2022/04/29 01:35:41;;;;;;;57.77;28.87;;;;;;;4.19;74.31;99888.81;2248122;79;20939;-79
2022/04/29 01:38:41;;;;;;;112.60;32.33;;;;;;;4.11;74.21;99888.41;2248263;79;20912;-79
2022/04/29 01:41:41;;;;;;;49.20;29.43;;;;;;;4.02;74.37;99892.19;2248387;79;20896;-79
2022/04/29 01:44:42;;;;;;;52.83;28.77;;;;;;;3.98;74.56;99896.70;2248018;79;20935;-79
2022/04/29 01:47:42;;;;;;;57.07;28.53;;;;;;;3.95;74.81;99887.50;2250057;77;20959;-79
2022/04/29 01:50:42;;;;;;;44.53;26.67;;;;;;;3.91;74.79;99891.61;2262247;79;21258;-81
2022/04/29 01:53:43;;;;;;;53.60;27.97;;;;;;;3.84;74.47;99886.51;2262302;79;20955;-79
2022/04/29 01:56:44;;;;;;;49.23;27.10;;;;;;;3.79;74.57;99890.94;2261873;79;20907;-79
2022/04/29 01:59:44;;;;;;;54.27;28.13;;;;;;;3.77;74.71;99890.84;2261979;79;20926;-80
2022/04/29 02:02:45;;;;;;;52.80;29.90;;;;;;;3.73;74.62;99890.20;2262300;79;20954;-80
2022/04/29 02:05:44;;;;;;;49.87;28.00;;;;;;;3.71;74.77;99890.52;2262167;79;20919;-79
2022/04/29 02:08:45;;;;;;;54.53;29.73;;;;;;;3.70;74.54;99892.61;2262085;79;20891;-79
2022/04/29 02:12:04;;;;;;;48.33;27.67;;;;;;;3.62;74.40;99897.75;2262216;79;20950;-79
2022/04/29 02:15:05;;;;;;;61.83;29.90;;;;;;;3.55;74.49;99899.91;2261958;79;20998;-79
2022/04/29 02:18:05;;;;;;;76.20;31.17;;;;;;;3.51;74.91;99893.68;2262332;79;20916;-80
2022/04/29 02:21:05;;;;;;;83.13;32.57;;;;;;;3.50;74.84;99896.66;2262287;79;20959;-81
2022/04/29 02:24:06;;;;;;;60.17;32.80;;;;;;;3.49;75.13;99900.45;2262347;79;20927;-80
2022/04/29 02:27:07;;;;;;;65.40;33.07;;;;;;;3.47;75.11;99899.07;2262335;79;20998;-81
2022/04/29 02:30:06;;;;;;;77.63;33.13;;;;;;;3.47;75.37;99894.31;2261392;79;20942;-80
2022/04/29 02:33:07;;;;;;;54.03;29.90;;;;;;;3.50;75.27;99895.37;2261423;79;20939;-80
2022/04/29 02:36:09;;;;;;;58.03;26.40;;;;;;;3.48;75.15;99892.22;2262394;79;21406;-80
2022/04/29 02:39:08;;;;;;;59.90;24.77;;;;;;;3.44;74.61;99891.12;2262105;79;20903;-80
2022/04/29 02:42:08;;;;;;;83.57;30.77;;;;;;;3.45;74.61;99893.30;2262176;79;20891;-80
2022/04/29 02:45:08;;;;;;;53.03;29.23;;;;;;;3.49;75.11;99891.41;2261536;78;21014;-80
2022/04/29 02:48:09;;;;;;;93.77;33.33;;;;;;;3.47;74.94;99893.91;2260304;78;21018;-81
2022/04/29 02:51:09;;;;;;;48.40;29.60;;;;;;;3.47;75.33;99890.03;2260213;79;21312;-80
2022/04/29 02:54:10;;;;;;;51.70;30.13;;;;;;;3.48;75.23;99890.52;2260071;79;20966;-80
2022/04/29 02:57:10;;;;;;;50.93;28.93;;;;;;;3.50;75.29;99893.19;2260475;79;20915;-80
2022/04/29 03:00:10;;;;;;;72.30;30.67;;;;;;;3.48;75.12;99887.05;2260197;79;21361;-80
2022/04/29 03:03:11;;;;;;;55.73;29.03;;;;;;;3.48;75.39;99885.77;2261913;79;20899;-79
2022/04/29 03:06:11;;;;;;;53.47;28.50;;;;;;;3.50;75.33;99890.20;2262224;79;20931;-80
2022/04/29 03:09:12;;;;;;;52.43;26.87;;;;;;;3.55;75.46;99889.58;2262206;79;21326;-80
2022/04/29 03:12:13;;;;;;;49.07;27.50;;;;;;;3.57;75.16;99882.80;2262346;79;20914;-80
2022/04/29 03:15:16;;;;;;;49.70;26.67;;;;;;;3.58;75.07;99889.75;2262064;79;20949;-80
2022/04/29 03:18:21;;;;;;;46.63;26.73;;;;;;;3.57;74.76;99889.27;2262434;79;20907;-80
2022/04/29 03:21:20;;;;;;;59.83;29.43;;;;;;;3.53;74.67;99893.36;2262121;79;20911;-79
2022/04/29 03:24:20;;;;;;;51.67;26.57;;;;;;;3.51;74.97;99893.68;2262058;79;20955;-80
2022/04/29 03:27:20;;;;;;;65.80;28.37;;;;;;;3.53;74.89;99893.36;2262029;79;20923;-79
2022/04/29 03:30:21;;;;;;;177.87;33.43;;;;;;;3.52;74.71;99892.88;2260680;79;21417;-79
2022/04/29 03:33:22;;;;;;;174.07;33.00;;;;;;;3.49;74.92;99888.83;2262309;79;20978;-79
2022/04/29 03:36:22;;;;;;;222.90;32.37;;;;;;;3.44;74.85;99891.52;2262200;79;20918;-82
2022/04/29 03:39:23;;;;;;;70.57;24.17;;;;;;;3.49;75.08;99893.59;2261677;79;20903;-80
2022/04/29 03:42:23;;;;;;;49.33;22.83;;;;;;;3.49;75.08;99893.59;2261708;79;20915;-80
2022/04/29 03:45:23;;;;;;;61.17;23.37;;;;;;;3.49;74.91;99900.45;2259678;79;21025;-79
2022/04/29 03:48:25;;;;;;;35.43;22.63;;;;;;;3.49;74.62;99903.03;2260328;79;20959;-79
2022/04/29 03:51:25;;;;;;;37.57;21.57;;;;;;;3.50;74.54;99906.98;2260951;79;20957;-80
2022/04/29 03:54:25;;;;;;;38.27;22.67;;;;;;;3.54;74.60;99909.34;2259753;79;20977;-80
2022/04/29 03:57:26;;;;;;;35.63;22.10;;;;;;;3.59;74.73;99912.18;2259128;79;21752;-79
2022/04/29 04:00:26;;;;;;;89.47;57.10;;;;;;;3.63;74.74;99909.86;2261605;79;20954;-80
2022/04/29 04:03:27;;;;;;;45.93;26.10;;;;;;;3.68;74.68;99909.70;2261604;79;21352;-80
2022/04/29 04:09:46;;;;;;;38.70;22.70;;;;;;;3.79;74.55;99907.72;2260483;78;20955;-80
2022/04/29 04:12:46;;;;;;;35.87;21.83;;;;;;;3.86;74.68;99903.78;2260166;79;21349;-80
2022/04/29 04:15:47;;;;;;;40.17;22.90;;;;;;;3.94;74.58;99903.80;2258889;79;20994;-79
2022/04/29 04:18:47;;;;;;;191.50;29.97;;;;;;;4.04;74.52;99911.25;2258319;79;21349;-79
2022/04/29 04:21:48;;;;;;;44.37;23.10;;;;;;;4.15;74.64;99910.13;2258834;79;21388;-80
2022/04/29 04:24:48;;;;;;;43.43;24.37;;;;;;;4.24;74.41;99912.32;2259131;79;20931;-79
2022/04/29 04:27:48;;;;;;;36.40;23.87;;;;;;;4.34;74.42;99904.28;2258426;79;21001;-80
2022/04/29 04:30:49;;;;;;;40.10;24.30;;;;;;;4.43;74.26;99904.37;2258292;79;21362;-79
2022/04/29 04:33:49;;;;;;;45.57;24.03;;;;;;;4.55;74.43;99913.17;2257664;79;20966;-80
2022/04/29 04:36:53;;;;;;;57.53;22.80;;;;;;;4.70;74.38;99906.61;2258239;79;20938;-79
2022/04/29 04:39:50;;;;;;;33.93;21.57;;;;;;;4.83;74.37;99909.02;2260150;79;21309;-80
2022/04/29 04:42:50;;;;;;;34.83;23.70;;;;;;;4.94;74.60;99907.88;2259544;79;20978;-80
2022/04/29 04:45:51;;;;;;;44.87;24.57;;;;;;;5.06;74.48;99912.38;2258682;79;21033;-79
2022/04/29 04:48:51;;;;;;;41.70;24.33;;;;;;;5.22;74.67;99920.94;2255439;79;21600;-80
2022/04/29 04:51:52;;;;;;;44.20;23.47;;;;;;;5.36;74.78;99921.22;2245917;79;20966;-81
2022/04/29 04:54:52;;;;;;;87.07;26.43;;;;;;;5.51;74.73;99922.38;2245605;79;20984;-82
2022/04/29 04:57:52;;;;;;;38.70;25.23;;;;;;;5.67;74.81;99917.13;2245110;79;20945;-83
2022/04/29 05:00:53;;;;;;;104.33;29.20;;;;;;;5.78;74.65;99914.64;2246995;79;21010;-84
2022/04/29 05:03:53;;;;;;;40.07;25.57;;;;;;;5.93;74.50;99919.69;2246821;79;20939;-84
2022/04/29 05:06:57;;;;;;;35.13;23.50;;;;;;;6.09;74.33;99923.52;2213401;80;22046;-84
2022/04/29 05:10:00;;;;;;;41.08;24.25;;;;;;;6.24;73.98;99930.70;2229617;79;20995;-84
2022/04/29 05:13:00;;;;;;;53.83;29.90;;;;;;;6.41;73.97;99932.77;2239453;79;21014;-84
2022/04/29 05:16:00;;;;;;;438.63;45.90;;;;;;;6.49;73.62;99932.70;2246689;79;21038;-82
2022/04/29 05:19:01;;;;;;;49.33;25.50;;;;;;;6.60;73.62;99930.59;2246281;79;21421;-83
2022/04/29 05:22:01;;;;;;;48.30;24.23;;;;;;;6.71;73.65;99934.14;2247149;79;20995;-84
2022/04/29 05:25:02;;;;;;;59.87;27.10;;;;;;;6.83;73.55;99931.20;2248095;79;20943;-83
2022/04/29 05:28:07;;;;;;;38.40;24.57;;;;;;;6.96;73.30;99935.25;2246663;79;20990;-84
2022/04/29 05:31:07;;;;;;;35.70;22.93;;;;;;;7.10;73.25;99935.84;2224413;79;21398;-84
2022/04/29 05:34:08;;;;;;;37.33;23.77;;;;;;;7.20;72.99;99938.02;2246159;79;20943;-81
2022/04/29 05:37:08;;;;;;;44.93;27.00;;;;;;;7.30;73.21;99937.58;2244806;79;21159;-82
2022/04/29 05:43:27;;;;;;;39.87;25.67;;;;;;;7.54;73.10;99934.70;2246096;78;20968;-83
2022/04/29 05:46:28;;;;;;;46.97;27.87;;;;;;;7.71;73.23;99933.20;2246304;78;20987;-82
2022/04/29 05:49:28;;;;;;;69.10;34.50;;;;;;;8.05;72.67;99938.05;2244196;79;20995;-79
2022/04/29 05:52:31;;;;;;;63.40;34.50;;;;;;;8.38;71.77;99941.09;2239818;79;21999;-83
2022/04/29 05:55:31;;;;;;;58.70;36.20;;;;;;;8.69;71.26;99941.86;2218124;79;20955;-79
2022/04/29 05:58:31;;;;;;;64.63;47.17;;;;;;;8.98;70.97;99932.48;2238913;79;20994;-79
2022/04/29 06:01:32;;;;;;;55.77;36.60;;;;;;;9.19;70.91;99934.13;2238800;79;21316;-81
2022/04/29 06:04:32;;;;;;;60.03;33.10;;;;;;;9.55;70.36;99937.12;2240516;79;21027;-81
2022/04/29 06:07:33;;;;;;;52.53;34.03;;;;;;;9.97;69.54;99932.81;2239919;79;20936;-81
2022/04/29 06:10:33;;;;;;;95.47;33.17;;;;;;;10.42;68.71;99932.52;2240825;79;21276;-82
2022/04/29 06:13:33;;;;;;;48.93;32.80;;;;;;;10.88;67.84;99935.14;2238971;79;20944;-82
2022/04/29 06:16:34;;;;;;;54.47;33.60;;;;;;;11.34;66.71;99935.98;2239551;79;21026;-83
2022/04/29 06:19:34;;;;;;;49.45;30.27;;;;;;;11.81;65.80;99939.83;2239373;79;20935;-83
2022/04/29 06:22:35;;;;;;;44.00;29.70;;;;;;;12.13;64.77;99937.97;2238506;79;21375;-82
2022/04/29 06:25:35;;;;;;;108.90;34.80;;;;;;;12.19;64.00;99943.80;2238685;79;20935;-83
2022/04/29 06:28:36;;;;;;;56.77;42.80;;;;;;;12.32;63.42;99946.73;2239485;79;22071;-83
2022/04/29 06:31:36;;;;;;;51.08;43.05;;;;;;;12.59;63.02;99946.44;2238850;79;21007;-82
2022/04/29 06:34:37;;;;;;;53.68;37.00;;;;;;;12.79;62.38;99944.66;2239295;79;20993;-83
2022/04/29 06:37:37;;;;;;;49.58;41.92;;;;;;;12.92;61.96;99943.62;2239114;79;21033;-79
2022/04/29 06:40:37;;;;;;;52.95;41.55;;;;;;;12.89;61.05;99943.98;2238869;79;21010;-81
2022/04/29 06:43:37;;;;;;;45.75;32.95;;;;;;;13.11;60.76;99946.20;2238956;79;21062;-83
2022/04/29 06:46:38;;;;;;;37.58;31.23;;;;;;;13.46;59.84;99946.89;2239801;79;21381;-82
2022/04/29 06:49:38;;;;;;;45.20;36.30;;;;;;;13.88;59.23;99941.51;2240680;78;21019;-80
2022/04/29 06:52:39;;;;;;;57.35;37.23;;;;;;;14.45;58.40;99943.27;2245927;79;20982;-82
2022/04/29 06:55:39;;;;;;;234.07;45.83;;;;;;;15.06;58.00;99941.86;2245772;79;20970;-82
2022/04/29 06:58:39;;;;;;;44.27;33.78;;;;;;;15.58;56.02;99945.94;2245468;79;20968;-82
2022/04/29 07:01:43;;;;;;;40.05;32.48;;;;;;;16.07;55.09;99943.30;2245111;79;20974;-83
2022/04/29 07:04:43;;;;;;;56.43;30.37;;;;;;;16.38;54.30;99947.01;2245864;79;20931;-80
2022/04/29 07:07:43;;;;;;;37.08;27.48;;;;;;;16.72;53.85;99938.02;2244913;79;20979;-83
2022/04/29 07:10:44;;;;;;;49.73;27.52;;;;;;;17.09;52.97;99946.95;2245114;79;21073;-83
2022/04/29 07:13:44;;;;;;;27.70;23.02;;;;;;;17.52;52.17;99944.00;2245023;79;20948;-82
2022/04/29 07:16:45;;;;;;;27.27;21.52;;;;;;;17.92;51.09;99937.45;2245422;79;20970;-81
2022/04/29 07:19:45;;;;;;;74.72;23.55;;;;;;;18.36;50.19;99942.26;2244658;79;21398;-81
2022/04/29 07:22:45;;;;;;;25.08;18.42;;;;;;;18.52;49.08;99939.58;2245071;79;20958;-82
2022/04/29 07:25:46;;;;;;;18.65;14.35;;;;;;;18.68;48.02;99936.03;2245180;79;21383;-78
2022/04/29 07:28:46;;;;;;;23.20;14.50;;;;;;;18.65;45.38;99940.01;2245701;79;21002;-79
2022/04/29 07:31:46;;;;;;;21.48;14.45;;;;;;;17.96;45.24;99938.77;2245286;79;20983;-79
2022/04/29 07:44:44;;;;;;;20.70;14.75;;;;;;;16.73;47.89;99948.58;2246460;78;21008;-81
2022/04/29 07:47:44;;;;;;;23.40;16.07;;;;;;;16.28;47.27;99955.73;2245152;79;21026;-81
2022/04/29 07:50:44;;;;;;;36.93;28.57;;;;;;;15.93;46.82;99957.67;2251221;77;20967;-79
2022/04/29 07:53:45;;;;;;;20.43;15.18;;;;;;;15.73;47.87;99949.17;2258897;79;20983;-80
2022/04/29 07:56:46;;;;;;;19.15;16.23;;;;;;;15.57;47.80;99949.40;2258722;79;20938;-80
2022/04/29 07:59:45;;;;;;;27.02;15.23;;;;;;;15.32;48.39;99959.23;2259448;79;21310;-81
2022/04/29 08:02:46;;;;;;;19.48;13.68;;;;;;;15.10;48.50;99955.06;2258970;79;21002;-80
2022/04/29 08:05:46;;;;;;;45.88;39.67;;;;;;;14.93;49.33;99954.86;2258594;79;20931;-81
2022/04/29 08:08:47;;;;;;;23.57;18.80;;;;;;;14.84;50.12;99956.50;2259606;79;21587;-83
2022/04/29 08:11:47;;;;;;;16.93;14.95;;;;;;;14.78;50.85;99957.73;2259118;79;20989;-80
2022/04/29 08:14:48;;;;;;;23.65;15.85;;;;;;;14.75;51.23;99957.27;2259244;79;20911;-80
2022/04/29 08:17:49;;;;;;;19.15;15.58;;;;;;;14.77;50.72;99951.59;2259997;79;21370;-82
2022/04/29 08:20:48;;;;;;;20.75;14.45;;;;;;;14.64;50.11;99952.27;2259612;79;20981;-81
2022/04/29 08:23:49;;;;;;;22.55;15.10;;;;;;;14.72;50.84;99956.31;2259921;79;20957;-80
2022/04/29 08:26:49;;;;;;;19.25;15.28;;;;;;;14.98;49.41;99951.86;2259088;79;20959;-80
2022/04/29 08:29:50;;;;;;;17.95;13.40;;;;;;;15.43;49.12;99949.70;2259676;79;20968;-82
2022/04/29 08:32:50;;;;;;;13.90;12.40;;;;;;;15.88;48.74;99944.91;2259797;79;21325;-82
2022/04/29 08:35:51;;;;;;;14.47;11.08;;;;;;;16.34;47.73;99939.08;2259049;79;20967;-81
2022/04/29 08:38:51;;;;;;;15.23;10.25;;;;;;;16.80;46.17;99933.66;2259396;79;20899;-82
2022/04/29 08:41:51;;;;;;;19.17;14.75;;;;;;;17.23;43.61;99930.72;2259361;79;20982;-79
2022/04/29 08:44:52;;;;;;;11.18;8.53;;;;;;;17.51;42.81;99925.96;2259639;79;20974;-81
2022/04/29 08:47:52;;;;;;;12.80;7.72;;;;;;;17.89;40.64;99927.77;2259133;79;20990;-81
2022/04/29 08:50:52;;;;;;;16.57;10.50;;;;;;;17.99;39.40;99915.42;2259729;79;20939;-82
2022/04/29 08:53:53;;;;;;;11.60;9.58;;;;;;;17.89;39.88;99922.92;2260615;79;21378;-81
2022/04/29 09:00:12;;;;;;;15.90;9.50;;;;;;;17.22;39.26;99921.48;2260120;78;21054;-81
2022/04/29 09:03:13;;;;;;;11.03;9.90;;;;;;;17.08;39.11;99928.92;2259898;79;20974;-81
2022/04/29 09:06:17;;;;;;;15.13;10.80;;;;;;;16.82;39.66;99924.00;2258829;79;21033;-81
2022/04/29 09:09:14;;;;;;;19.07;11.80;;;;;;;16.67;40.31;99922.19;2260181;79;21003;-80
2022/04/29 09:12:16;;;;;;;19.48;10.82;;;;;;;16.45;41.44;99922.89;2259793;79;21870;-82
2022/04/29 09:15:14;;;;;;;28.42;13.08;;;;;;;16.19;41.80;99935.91;2259663;79;20997;-82
2022/04/29 09:18:15;;;;;;;14.43;10.13;;;;;;;15.97;42.14;99930.05;2258935;79;21010;-82
2022/04/29 09:21:15;;;;;;;13.65;8.68;;;;;;;15.75;41.11;99932.52;2259619;79;20993;-82
2022/04/29 09:24:16;;;;;;;11.18;8.00;;;;;;;15.62;42.10;99929.34;2259906;79;20993;-81
2022/04/29 09:27:16;;;;;;;28.02;18.80;;;;;;;15.48;40.95;99930.89;2259198;79;21711;-80
2022/04/29 09:30:17;;;;;;;35.55;25.12;;;;;;;15.35;42.09;99919.38;2259368;79;21010;-82
2022/04/29 09:33:18;;;;;;;13.72;8.58;;;;;;;15.33;41.06;99917.59;2260141;78;20962;-82
2022/04/29 09:36:18;;;;;;;12.75;8.55;;;;;;;15.59;40.97;99914.80;2259433;79;20945;-82
2022/04/29 09:39:27;;;;;;;12.33;6.87;;;;;;;16.15;40.99;99907.79;2259149;79;21291;-82
2022/04/29 09:42:28;;;;;;;14.40;7.15;;;;;;;16.68;39.76;99892.75;2260105;79;20958;-82
2022/04/29 09:45:28;;;;;;;21.33;18.42;;;;;;;17.29;38.83;99890.27;2260571;79;20950;-83
2022/04/29 09:48:28;;;;;;;12.10;7.55;;;;;;;17.73;37.61;99888.59;2259231;79;21016;-81
2022/04/29 09:51:29;;;;;;;10.03;6.05;;;;;;;17.94;37.06;99884.17;2253972;79;21061;-82
2022/04/29 09:54:29;;;;;;;22.00;6.37;;;;;;;18.30;35.81;99888.09;2252701;79;21265;-83
2022/04/29 09:57:29;;;;;;;7.10;5.67;;;;;;;18.63;34.88;99875.67;2253836;79;21042;-83
2022/04/29 10:00:30;;;;;;;8.00;5.35;;;;;;;18.86;33.59;99881.73;2253342;79;20919;-81
2022/04/29 10:03:30;;;;;;;9.05;6.25;;;;;;;18.83;33.36;99880.42;2252446;79;21825;-81
2022/04/29 10:06:31;;;;;;;8.68;7.37;;;;;;;18.72;32.11;99876.95;2252153;79;20959;-82
2022/04/29 10:09:32;;;;;;;6.97;5.30;;;;;;;18.78;32.14;99879.13;2252741;79;20935;-82
2022/04/29 10:12:32;;;;;;;9.08;6.78;;;;;;;19.16;31.70;99877.17;2251766;78;21421;-81
2022/04/29 10:15:32;;;;;;;12.78;6.67;;;;;;;19.43;31.25;99876.10;2251767;79;21337;-79
2022/04/29 10:21:51;;;;;;;9.60;6.78;;;;;;;19.21;30.52;99870.08;2252692;79;20947;-81
2022/04/29 10:24:52;;;;;;;5.40;4.78;;;;;;;19.51;31.35;99854.41;2251979;79;20982;-81
2022/04/29 10:27:52;;;;;;;5.67;4.62;;;;;;;19.79;30.12;99861.26;2252430;79;20912;-81
2022/04/29 10:30:53;;;;;;;5.58;4.33;;;;;;;19.98;30.31;99853.59;2252824;79;20899;-81
2022/04/29 10:33:53;;;;;;;6.35;5.08;;;;;;;20.01;30.05;99854.89;2254332;79;21351;-82
2022/04/29 10:36:53;;;;;;;8.15;4.87;;;;;;;19.58;29.06;99861.00;2253329;79;20974;-82
2022/04/29 10:39:54;;;;;;;5.62;4.70;;;;;;;18.94;30.57;99863.16;2252963;79;20966;-83
2022/04/29 10:42:54;;;;;;;7.55;5.17;;;;;;;19.12;31.19;99848.97;2252866;79;20935;-83
2022/04/29 10:45:55;;;;;;;13.35;6.47;;;;;;;19.41;30.70;99844.34;2252505;79;20978;-82
2022/04/29 10:48:55;;;;;;;5.83;4.97;;;;;;;19.26;30.68;99844.02;2253223;79;21006;-81
2022/04/29 10:51:56;;;;;;;6.00;5.10;;;;;;;19.17;30.68;99844.53;2252760;77;20991;-83
2022/04/29 10:54:56;;;;;;;15.98;7.75;;;;;;;19.25;30.62;99838.73;2252868;78;21386;-82
2022/04/29 10:57:56;;;;;;;6.95;4.45;;;;;;;19.08;30.64;99844.15;2252995;79;21022;-81
2022/04/29 11:00:57;;;;;;;8.20;5.25;;;;;;;18.94;30.98;99837.59;2253148;79;21017;-81
2022/04/29 11:04:00;;;;;;;6.60;4.75;;;;;;;19.28;31.21;99832.97;2253658;79;21315;-81
2022/04/29 11:07:01;;;;;;;8.13;4.47;;;;;;;19.66;30.10;99840.63;2254161;79;20970;-80
2022/04/29 11:10:01;;;;;;;48.00;42.88;;;;;;;19.77;29.50;99831.70;2253290;79;20935;-81
2022/04/29 11:13:03;;;;;;;9.20;5.33;;;;;;;19.85;29.29;99832.50;2252973;79;21849;-81
2022/04/29 11:16:02;;;;;;;4.67;4.28;;;;;;;19.99;28.96;99830.17;2252360;79;20935;-81
2022/04/29 11:19:02;;;;;;;7.65;4.03;;;;;;;19.86;29.22;99830.28;2252974;79;20939;-82
2022/04/29 11:25:22;;;;;;;14.23;4.30;;;;;;;20.14;27.99;99825.59;2253162;79;20971;-80
2022/04/29 11:28:22;;;;;;;6.15;4.25;;;;;;;20.35;28.60;99808.98;2253052;79;21062;-82
2022/04/29 11:31:22;;;;;;;6.67;4.58;;;;;;;20.58;28.46;99821.98;2253229;79;20901;-83
2022/04/29 11:34:24;;;;;;;7.22;3.72;;;;;;;20.19;28.82;99823.33;2221083;79;20975;-81
2022/04/29 11:37:25;;;;;;;9.33;7.00;;;;;;;19.66;28.74;99828.70;2252977;79;21345;-81
2022/04/29 11:40:25;;;;;;;11.43;7.40;;;;;;;19.08;30.39;99815.92;2252306;79;20970;-80
2022/04/29 11:43:26;;;;;;;8.10;4.00;;;;;;;18.62;31.12;99824.55;2251958;79;21037;-79
2022/04/29 11:46:26;;;;;;;6.92;3.92;;;;;;;18.49;30.97;99817.53;2252650;79;21065;-82
2022/04/29 11:49:27;;;;;;;5.22;3.22;;;;;;;18.63;30.34;99816.17;2252887;79;21201;-80
2022/04/29 11:52:27;;;;;;;4.65;3.72;;;;;;;18.71;29.98;99803.78;2251317;79;21672;-82
2022/04/29 11:55:27;;;;;;;7.12;3.17;;;;;;;19.29;29.79;99805.61;2252292;79;20939;-78
2022/04/29 11:58:28;;;;;;;4.80;3.12;;;;;;;19.65;28.70;99797.81;2251087;79;20970;-81
2022/04/29 12:01:28;;;;;;;8.45;4.62;;;;;;;19.91;27.18;99798.88;2252316;79;20999;-79
2022/04/29 12:04:29;;;;;;;52.30;37.48;;;;;;;19.73;27.84;99797.30;2252127;79;21255;-81
2022/04/29 12:07:29;;;;;;;9.68;5.37;;;;;;;19.29;29.06;99798.11;2251858;79;21337;-79
2022/04/29 12:10:29;;;;;;;12.60;3.05;;;;;;;19.18;28.49;99789.38;2251728;79;21018;-80
2022/04/29 12:13:30;;;;;;;5.37;2.95;;;;;;;19.36;29.13;99790.11;2252319;79;20931;-80
2022/04/29 12:16:31;;;;;;;4.80;3.15;;;;;;;19.37;28.34;99787.02;2252260;79;20965;-80
2022/04/29 12:19:31;;;;;;;11.10;2.85;;;;;;;19.24;28.61;99786.69;2251917;79;20975;-79
2022/04/29 12:22:31;;;;;;;6.28;2.67;;;;;;;19.58;28.29;99773.61;2249507;79;20983;-80
2022/04/29 12:25:31;;;;;;;8.20;3.12;;;;;;;19.86;27.89;99774.20;2251201;79;20953;-80
2022/04/29 12:28:32;;;;;;;4.42;3.02;;;;;;;20.13;27.86;99772.16;2251692;79;20927;-79
2022/04/29 12:34:52;;;;;;;3.22;2.85;;;;;;;19.89;26.26;99762.69;2252089;79;20973;-80
2022/04/29 12:37:52;;;;;;;3.10;2.75;;;;;;;19.87;27.20;99764.48;2252374;79;20974;-79
2022/04/29 12:40:52;;;;;;;3.77;2.80;;;;;;;20.17;26.97;99765.48;2253272;79;20955;-80
2022/04/29 12:43:52;;;;;;;4.80;3.60;;;;;;;20.46;26.93;99757.17;2252611;79;21014;-81
2022/04/29 12:46:53;;;;;;;8.33;5.72;;;;;;;20.62;26.93;99755.19;2252555;79;21069;-79
2022/04/29 12:49:53;;;;;;;6.30;3.60;;;;;;;20.57;26.55;99757.02;2250493;79;21022;-79
2022/04/29 12:52:58;;;;;;;7.35;3.70;;;;;;;20.52;26.44;99749.58;2246069;79;21042;-80
2022/04/29 12:55:59;;;;;;;12.85;4.20;;;;;;;20.53;26.64;99750.89;2221645;79;20987;-79
2022/04/29 12:58:59;;;;;;;7.90;3.87;;;;;;;20.49;25.78;99742.55;2244142;79;21218;-80
2022/04/29 13:02:00;;;;;;;5.30;3.70;;;;;;;20.29;26.29;99742.78;2246644;79;20994;-81
2022/04/29 13:05:00;;;;;;;6.53;3.17;;;;;;;20.25;26.18;99745.05;2246312;79;20928;-81
2022/04/29 13:08:01;;;;;;;6.40;3.10;;;;;;;20.18;26.56;99737.20;2245304;79;20978;-79
2022/04/29 13:11:03;;;;;;;10.15;3.62;;;;;;;20.22;26.12;99729.18;2245486;79;20994;-82
2022/04/29 13:14:01;;;;;;;7.45;3.00;;;;;;;20.24;26.32;99727.39;2245625;79;21009;-81
2022/04/29 13:17:02;;;;;;;6.05;3.08;;;;;;;19.92;26.29;99726.88;2244869;78;21071;-81
2022/04/29 13:20:02;;;;;;;6.97;2.90;;;;;;;19.68;26.89;99725.39;2244613;79;21050;-81
2022/04/29 13:23:03;;;;;;;3.65;2.77;;;;;;;19.65;26.69;99722.33;2244982;79;20959;-80
2022/04/29 13:26:03;;;;;;;4.30;3.02;;;;;;;19.65;26.78;99716.16;2244815;79;20907;-79
2022/04/29 13:29:04;;;;;;;6.58;3.08;;;;;;;19.78;26.82;99714.25;2244332;79;21400;-80
2022/04/29 13:32:04;;;;;;;2.70;2.45;;;;;;;19.96;26.60;99709.64;2245309;79;21040;-81
2022/04/29 13:35:06;;;;;;;5.25;3.05;;;;;;;19.79;25.48;99721.30;2245288;79;20939;-80
2022/04/29 13:38:05;;;;;;;2.85;2.40;;;;;;;19.32;27.28;99714.26;2245735;79;20979;-82
2022/04/29 13:41:06;;;;;;;6.12;3.12;;;;;;;19.37;27.05;99712.89;2245671;79;20943;-83
2022/04/29 13:44:06;;;;;;;7.75;2.70;;;;;;;19.35;27.64;99715.55;2247144;79;21917;-82
2022/04/29 13:47:06;;;;;;;5.87;3.10;;;;;;;18.88;28.14;99718.59;2246394;79;21015;-80
2022/04/29 13:50:06;;;;;;;6.85;2.55;;;;;;;18.46;27.84;99705.19;2244993;79;20990;-80
2022/04/29 13:53:11;;;;;;;4.70;3.10;;;;;;;18.43;28.14;99712.70;2250709;79;21014;-79
2022/04/29 13:56:10;;;;;;;3.90;2.25;;;;;;;18.55;28.29;99709.09;2253011;79;21013;-78
2022/04/29 13:59:10;;;;;;;3.08;2.58;;;;;;;18.26;28.93;99711.92;2250636;79;21417;-78
2022/04/29 14:02:11;;;;;;;47.62;5.12;;;;;;;18.04;29.68;99712.44;2252894;79;20970;-82
2022/04/29 14:05:11;;;;;;;6.35;2.90;;;;;;;17.91;30.30;99710.73;2252655;79;20983;-80
2022/04/29 14:08:11;;;;;;;5.33;3.10;;;;;;;17.70;29.64;99706.41;2252127;79;20919;-80
2022/04/29 14:11:13;;;;;;;5.62;2.70;;;;;;;17.67;29.65;99709.50;2252410;79;20983;-80
2022/04/29 14:14:12;;;;;;;6.15;3.00;;;;;;;18.01;29.41;99701.00;2252687;79;21366;-80
2022/04/29 14:17:14;;;;;;;4.53;3.08;;;;;;;18.28;28.20;99698.25;2251779;79;21043;-79
2022/04/29 14:20:14;;;;;;;6.37;2.83;;;;;;;18.47;28.53;99695.05;2253054;79;20958;-81
2022/04/29 14:23:13;;;;;;;6.28;2.75;;;;;;;18.51;28.19;99688.86;2252565;79;20986;-80
2022/04/29 14:26:14;;;;;;;5.80;2.90;;;;;;;18.38;27.87;99688.06;2252541;79;20987;-81
2022/04/29 14:29:14;;;;;;;5.83;3.20;;;;;;;18.20;29.18;99682.84;2253841;79;20955;-83